sensor_id;sensor_type;location;lat;lon;timestamp;P1;durP1;ratioP1;P2;durP2;ratioP2
78772;SDS011;68111;44.728;11.290;2023-10-08T00:09:51;33.35;;;22.52;;
78772;SDS011;68111;44.728;11.290;2023-10-08T00:34:21;39.55;;;27.08;;
78772;SDS011;68111;44.728;11.290;2023-10-08T00:36:53;37.33;;;27.13;;
78772;SDS011;68111;44.728;11.290;2023-10-08T00:39:20;43.20;;;28.88;;
78772;SDS011;68111;44.728;11.290;2023-10-08T00:41:51;41.33;;;28.17;;
78772;SDS011;68111;44.728;11.290;2023-10-08T00:44:39;36.17;;;27.27;;
78772;SDS011;68111;44.728;11.290;2023-10-08T00:47:15;38.97;;;27.13;;
78772;SDS011;68111;44.728;11.290;2023-10-08T00:49:48;47.92;;;31.10;;
78772;SDS011;68111;44.728;11.290;2023-10-08T00:52:21;47.10;;;32.83;;
78772;SDS011;68111;44.728;11.290;2023-10-08T00:54:56;49.08;;;35.00;;
78772;SDS011;68111;44.728;11.290;2023-10-08T00:57:31;47.88;;;32.75;;
78772;SDS011;68111;44.728;11.290;2023-10-08T01:02:32;61.28;;;39.05;;
78772;SDS011;68111;44.728;11.290;2023-10-08T01:05:18;51.22;;;34.13;;
78772;SDS011;68111;44.728;11.290;2023-10-08T01:07:50;56.90;;;34.17;;
78772;SDS011;68111;44.728;11.290;2023-10-08T01:10:18;45.40;;;30.85;;
78772;SDS011;68111;44.728;11.290;2023-10-08T01:12:48;38.08;;;27.00;;
78772;SDS011;68111;44.728;11.290;2023-10-08T01:15:21;50.17;;;34.08;;
78772;SDS011;68111;44.728;11.290;2023-10-08T01:17:55;43.22;;;28.67;;
78772;SDS011;68111;44.728;11.290;2023-10-08T01:20:34;47.63;;;32.55;;
78772;SDS011;68111;44.728;11.290;2023-10-08T01:23:04;37.90;;;25.13;;
78772;SDS011;68111;44.728;11.290;2023-10-08T01:25:37;42.58;;;27.73;;
78772;SDS011;68111;44.728;11.290;2023-10-08T01:28:05;40.60;;;28.92;;
78772;SDS011;68111;44.728;11.290;2023-10-08T01:30:44;29.80;;;21.08;;
78772;SDS011;68111;44.728;11.290;2023-10-08T01:33:13;51.50;;;34.72;;
78772;SDS011;68111;44.728;11.290;2023-10-08T01:35:43;49.15;;;32.00;;
78772;SDS011;68111;44.728;11.290;2023-10-08T01:38:10;54.08;;;36.17;;
78772;SDS011;68111;44.728;11.290;2023-10-08T01:40:40;43.30;;;30.50;;
78772;SDS011;68111;44.728;11.290;2023-10-08T01:43:08;53.10;;;36.08;;
78772;SDS011;68111;44.728;11.290;2023-10-08T01:45:37;52.03;;;35.30;;
78772;SDS011;68111;44.728;11.290;2023-10-08T01:48:07;51.80;;;33.75;;
78772;SDS011;68111;44.728;11.290;2023-10-08T01:50:37;58.20;;;40.08;;
78772;SDS011;68111;44.728;11.290;2023-10-08T01:53:05;47.33;;;33.90;;
78772;SDS011;68111;44.728;11.290;2023-10-08T01:55:37;49.08;;;32.60;;
78772;SDS011;68111;44.728;11.290;2023-10-08T01:58:16;46.28;;;31.10;;
78772;SDS011;68111;44.728;11.290;2023-10-08T02:00:47;37.67;;;26.77;;
78772;SDS011;68111;44.728;11.290;2023-10-08T02:03:15;53.30;;;35.78;;
78772;SDS011;68111;44.728;11.290;2023-10-08T02:05:45;42.00;;;28.35;;
78772;SDS011;68111;44.728;11.290;2023-10-08T02:08:13;44.63;;;30.63;;
78772;SDS011;68111;44.728;11.290;2023-10-08T02:10:41;47.25;;;31.50;;
78772;SDS011;68111;44.728;11.290;2023-10-08T03:31:58;29.25;;;20.00;;
78772;SDS011;68111;44.728;11.290;2023-10-08T03:34:32;43.17;;;29.33;;
78772;SDS011;68111;44.728;11.290;2023-10-08T03:37:00;43.40;;;32.10;;
78772;SDS011;68111;44.728;11.290;2023-10-08T03:39:33;47.30;;;31.60;;
78772;SDS011;68111;44.728;11.290;2023-10-08T03:42:20;50.10;;;33.67;;
78772;SDS011;68111;44.728;11.290;2023-10-08T03:44:47;45.03;;;31.33;;
78772;SDS011;68111;44.728;11.290;2023-10-08T03:47:18;52.97;;;36.42;;
78772;SDS011;68111;44.728;11.290;2023-10-08T03:49:45;50.03;;;34.05;;
78772;SDS011;68111;44.728;11.290;2023-10-08T03:52:12;48.70;;;34.00;;
78772;SDS011;68111;44.728;11.290;2023-10-08T03:54:39;51.03;;;35.58;;
78772;SDS011;68111;44.728;11.290;2023-10-08T03:57:14;41.30;;;29.45;;
78772;SDS011;68111;44.728;11.290;2023-10-08T03:59:51;47.83;;;33.22;;
78772;SDS011;68111;44.728;11.290;2023-10-08T04:02:25;45.92;;;33.22;;
78772;SDS011;68111;44.728;11.290;2023-10-08T04:48:25;46.45;;;31.95;;
78772;SDS011;68111;44.728;11.290;2023-10-08T04:50:56;50.80;;;33.72;;
78772;SDS011;68111;44.728;11.290;2023-10-08T04:53:27;48.13;;;33.90;;
78772;SDS011;68111;44.728;11.290;2023-10-08T04:55:59;42.22;;;30.63;;
78772;SDS011;68111;44.728;11.290;2023-10-08T04:58:33;44.25;;;31.60;;
78772;SDS011;68111;44.728;11.290;2023-10-08T05:01:04;48.35;;;33.03;;
78772;SDS011;68111;44.728;11.290;2023-10-08T05:03:50;46.60;;;31.20;;
78772;SDS011;68111;44.728;11.290;2023-10-08T05:06:56;49.80;;;32.90;;
78772;SDS011;68111;44.728;11.290;2023-10-08T05:09:44;45.90;;;32.42;;
78772;SDS011;68111;44.728;11.290;2023-10-08T05:12:18;49.90;;;34.00;;
78772;SDS011;68111;44.728;11.290;2023-10-08T05:15:00;41.35;;;29.10;;
78772;SDS011;68111;44.728;11.290;2023-10-08T05:17:42;47.42;;;32.42;;
78772;SDS011;68111;44.728;11.290;2023-10-08T05:20:20;46.90;;;32.75;;
78772;SDS011;68111;44.728;11.290;2023-10-08T05:23:07;43.97;;;30.33;;
78772;SDS011;68111;44.728;11.290;2023-10-08T05:25:52;53.33;;;35.00;;
78772;SDS011;68111;44.728;11.290;2023-10-08T05:28:35;44.08;;;32.20;;
78772;SDS011;68111;44.728;11.290;2023-10-08T05:31:16;46.33;;;31.83;;
78772;SDS011;68111;44.728;11.290;2023-10-08T05:33:43;46.05;;;30.70;;
78772;SDS011;68111;44.728;11.290;2023-10-08T05:36:28;34.45;;;23.88;;
78772;SDS011;68111;44.728;11.290;2023-10-08T05:39:17;32.05;;;22.92;;
78772;SDS011;68111;44.728;11.290;2023-10-08T05:42:02;40.45;;;28.60;;
78772;SDS011;68111;44.728;11.290;2023-10-08T05:44:57;38.22;;;26.55;;
78772;SDS011;68111;44.728;11.290;2023-10-08T05:47:36;44.10;;;28.92;;
78772;SDS011;68111;44.728;11.290;2023-10-08T05:50:04;41.55;;;30.83;;
78772;SDS011;68111;44.728;11.290;2023-10-08T06:07:50;37.15;;;26.55;;
78772;SDS011;68111;44.728;11.290;2023-10-08T06:10:22;37.55;;;26.70;;
78772;SDS011;68111;44.728;11.290;2023-10-08T06:13:14;33.78;;;24.00;;
78772;SDS011;68111;44.728;11.290;2023-10-08T06:28:17;43.03;;;30.38;;
78772;SDS011;68111;44.728;11.290;2023-10-08T06:30:48;39.63;;;26.88;;
78772;SDS011;68111;44.728;11.290;2023-10-08T06:33:16;32.00;;;23.05;;
78772;SDS011;68111;44.728;11.290;2023-10-08T06:35:46;37.38;;;25.67;;
78772;SDS011;68111;44.728;11.290;2023-10-08T06:38:33;42.97;;;28.27;;
78772;SDS011;68111;44.728;11.290;2023-10-08T06:41:02;38.90;;;26.05;;
78772;SDS011;68111;44.728;11.290;2023-10-08T06:44:02;36.85;;;26.17;;
78772;SDS011;68111;44.728;11.290;2023-10-08T06:46:29;26.83;;;19.00;;
78772;SDS011;68111;44.728;11.290;2023-10-08T06:49:04;35.17;;;24.58;;
78772;SDS011;68111;44.728;11.290;2023-10-08T06:51:38;39.47;;;27.65;;
78772;SDS011;68111;44.728;11.290;2023-10-08T06:54:08;37.42;;;27.58;;
78772;SDS011;68111;44.728;11.290;2023-10-08T06:56:37;45.95;;;30.77;;
78772;SDS011;68111;44.728;11.290;2023-10-08T07:19:35;19.08;;;13.40;;
78772;SDS011;68111;44.728;11.290;2023-10-08T07:34:39;18.23;;;14.30;;
78772;SDS011;68111;44.728;11.290;2023-10-08T08:21:21;17.58;;;14.05;;
78772;SDS011;68111;44.728;11.290;2023-10-08T09:17:39;12.88;;;10.45;;
78772;SDS011;68111;44.728;11.290;2023-10-08T09:20:06;17.20;;;11.82;;
78772;SDS011;68111;44.728;11.290;2023-10-08T09:22:33;15.15;;;11.50;;
78772;SDS011;68111;44.728;11.290;2023-10-08T09:25:02;16.60;;;13.27;;
78772;SDS011;68111;44.728;11.290;2023-10-08T09:44:49;12.40;;;10.63;;
78772;SDS011;68111;44.728;11.290;2023-10-08T09:47:21;13.85;;;11.23;;
78772;SDS011;68111;44.728;11.290;2023-10-08T09:50:02;13.30;;;10.35;;
78772;SDS011;68111;44.728;11.290;2023-10-08T09:52:42;15.15;;;11.57;;
78772;SDS011;68111;44.728;11.290;2023-10-08T09:55:17;13.80;;;10.88;;
78772;SDS011;68111;44.728;11.290;2023-10-08T12:27:48;14.57;;;10.25;;
78772;SDS011;68111;44.728;11.290;2023-10-08T12:58:39;13.05;;;10.43;;
78772;SDS011;68111;44.728;11.290;2023-10-08T14:26:35;13.73;;;10.10;;
78772;SDS011;68111;44.728;11.290;2023-10-08T14:29:03;12.77;;;9.60;;
78772;SDS011;68111;44.728;11.290;2023-10-08T14:31:41;12.15;;;8.70;;
78772;SDS011;68111;44.728;11.290;2023-10-08T14:40:11;13.73;;;9.35;;
78772;SDS011;68111;44.728;11.290;2023-10-08T14:42:56;13.45;;;8.77;;
78772;SDS011;68111;44.728;11.290;2023-10-08T15:23:28;11.90;;;8.50;;
78772;SDS011;68111;44.728;11.290;2023-10-08T15:51:12;13.03;;;7.93;;
78772;SDS011;68111;44.728;11.290;2023-10-08T18:25:24;23.02;;;8.60;;
78772;SDS011;68111;44.728;11.290;2023-10-08T18:27:51;16.25;;;7.70;;
78772;SDS011;68111;44.728;11.290;2023-10-08T18:30:20;16.52;;;8.00;;
78772;SDS011;68111;44.728;11.290;2023-10-08T18:32:47;17.23;;;8.10;;
78772;SDS011;68111;44.728;11.290;2023-10-08T18:35:15;24.52;;;8.45;;
78772;SDS011;68111;44.728;11.290;2023-10-08T18:37:43;18.05;;;7.63;;
78772;SDS011;68111;44.728;11.290;2023-10-08T18:40:10;15.30;;;7.55;;
78772;SDS011;68111;44.728;11.290;2023-10-08T18:42:43;20.63;;;8.00;;
78772;SDS011;68111;44.728;11.290;2023-10-08T22:49:14;18.30;;;7.82;;
78772;SDS011;68111;44.728;11.290;2023-10-08T22:51:44;14.40;;;7.77;;
78772;SDS011;68111;44.728;11.290;2023-10-08T22:54:13;16.33;;;7.20;;
78772;SDS011;68111;44.728;11.290;2023-10-08T22:56:40;14.43;;;6.90;;
78772;SDS011;68111;44.728;11.290;2023-10-08T23:32:34;17.55;;;8.38;;
78772;SDS011;68111;44.728;11.290;2023-10-08T23:35:02;17.13;;;8.20;;
78772;SDS011;68111;44.728;11.290;2023-10-08T23:37:29;18.15;;;7.95;;
78772;SDS011;68111;44.728;11.290;2023-10-08T23:40:05;16.25;;;7.78;;
78772;SDS011;68111;44.728;11.290;2023-10-08T23:42:49;18.20;;;7.65;;
78772;SDS011;68111;44.728;11.290;2023-10-08T23:47:54;17.13;;;7.30;;
78772;SDS011;68111;44.728;11.290;2023-10-08T23:50:21;18.88;;;6.95;;
78772;SDS011;68111;44.728;11.290;2023-10-08T23:52:57;15.75;;;6.93;;
78772;SDS011;68111;44.728;11.290;2023-10-08T23:55:28;17.58;;;7.32;;
78772;SDS011;68111;44.728;11.290;2023-10-08T23:57:55;15.15;;;7.47;;
